createdAt,value
2022-12-18T00:04:30.001Z,18.00
2022-12-18T00:06:03.406Z,21.37
2022-12-18T00:09:11.445Z,20.90
2022-12-18T00:10:45.686Z,19.87
2022-12-18T00:13:58.305Z,22.33
2022-12-18T00:15:31.183Z,20.83
2022-12-18T00:17:04.463Z,21.38
2022-12-18T00:18:36.802Z,22.20
2022-12-18T00:20:11.324Z,21.95
2022-12-18T00:21:45.597Z,23.90
2022-12-18T00:23:18.594Z,22.83
2022-12-18T00:24:51.553Z,21.85
2022-12-18T00:26:27.013Z,23.75
2022-12-18T00:27:59.972Z,22.90
2022-12-18T00:29:33.222Z,22.55
2022-12-18T00:31:06.787Z,22.10
2022-12-18T00:32:39.817Z,21.77
2022-12-18T00:34:13.994Z,23.88
2022-12-18T00:35:46.137Z,21.97
2022-12-18T00:37:20.343Z,22.43
2022-12-18T00:38:53.291Z,21.93
2022-12-18T00:40:26.149Z,22.00
2022-12-18T00:42:17.688Z,20.20
2022-12-18T00:43:49.557Z,18.57
2022-12-18T00:45:22.527Z,17.70
2022-12-18T00:46:55.476Z,18.63
2022-12-18T00:48:28.323Z,17.17
2022-12-18T00:50:01.971Z,18.42
2022-12-18T00:51:35.191Z,18.00
2022-12-18T00:53:08.419Z,19.10
2022-12-18T00:54:40.380Z,17.05
2022-12-18T00:56:14.377Z,18.93
2022-12-18T00:57:48.689Z,18.33
2022-12-18T00:59:20.743Z,17.97
2022-12-18T01:00:53.948Z,17.43
2022-12-18T01:02:27.006Z,19.23
2022-12-18T01:04:02.430Z,19.03
2022-12-18T01:05:34.778Z,19.17
2022-12-18T01:07:07.755Z,18.23
2022-12-18T01:08:40.108Z,18.52
2022-12-18T01:10:14.687Z,17.70
2022-12-18T01:11:47.594Z,16.27
2022-12-18T01:13:20.883Z,15.68
2022-12-18T01:16:26.811Z,14.23
2022-12-18T01:17:59.145Z,14.63
2022-12-18T01:19:32.258Z,15.53
2022-12-18T01:21:08.702Z,15.15
2022-12-18T01:22:42.006Z,14.50
2022-12-18T01:25:46.870Z,12.47
2022-12-18T01:27:20.122Z,14.53
2022-12-18T01:28:56.407Z,14.07
2022-12-18T01:30:28.614Z,15.50
2022-12-18T01:32:01.543Z,16.27
2022-12-18T01:33:33.483Z,16.52
2022-12-18T01:35:07.580Z,16.50
2022-12-18T01:36:40.945Z,16.57
2022-12-18T01:39:45.709Z,15.40
2022-12-18T01:41:21.657Z,16.77
2022-12-18T01:42:53.646Z,16.40
2022-12-18T01:45:00.662Z,17.67
2022-12-18T01:46:33.622Z,17.03
2022-12-18T01:48:09.542Z,16.58
2022-12-18T01:49:42.881Z,16.53
2022-12-18T01:52:50.909Z,15.97
2022-12-18T01:54:23.849Z,18.57
2022-12-18T01:55:59.033Z,17.85
2022-12-18T01:57:32.544Z,19.00
2022-12-18T01:59:09.917Z,17.77
2022-12-18T02:00:43.530Z,17.43
2022-12-18T02:02:19.716Z,16.20
2022-12-18T02:03:53.370Z,15.50
2022-12-18T02:05:36.103Z,14.63
2022-12-18T02:07:16.268Z,13.67
2022-12-18T02:08:59.965Z,13.20
2022-12-18T02:10:34.733Z,14.20
2022-12-18T02:12:15.743Z,14.03
2022-12-18T02:13:59.514Z,13.03
2022-12-18T02:17:13.225Z,12.65
2022-12-18T02:18:49.766Z,12.53
2022-12-18T02:20:30.066Z,12.33
2022-12-18T02:22:19.665Z,13.47
2022-12-18T02:23:58.207Z,12.17
2022-12-18T02:25:59.770Z,13.43
2022-12-18T02:27:35.939Z,13.67
2022-12-18T02:29:14.133Z,13.50
2022-12-18T02:30:51.288Z,13.37
2022-12-18T02:32:27.498Z,14.93
2022-12-18T02:34:03.278Z,14.90
2022-12-18T02:35:38.351Z,13.70
2022-12-18T02:37:13.878Z,13.90
2022-12-18T02:38:48.076Z,14.87
2022-12-18T02:40:22.752Z,13.70
2022-12-18T02:41:54.889Z,14.47
2022-12-18T02:43:29.199Z,14.00
2022-12-18T02:45:02.110Z,14.90
2022-12-18T02:46:37.518Z,15.38
2022-12-18T02:48:10.833Z,15.67
2022-12-18T02:49:51.698Z,15.73
2022-12-18T02:51:33.571Z,12.60
2022-12-18T02:53:16.125Z,13.03
2022-12-18T02:54:58.796Z,13.90
2022-12-18T02:56:37.412Z,13.63
2022-12-18T02:58:17.830Z,13.13
2022-12-18T03:00:00.505Z,12.23
2022-12-18T03:01:37.857Z,12.70
2022-12-18T03:03:18.752Z,13.17
2022-12-18T03:05:00.646Z,14.47
2022-12-18T03:06:39.222Z,14.13
2022-12-18T03:08:16.025Z,14.60
2022-12-18T03:09:51.368Z,13.77
2022-12-18T03:11:44.508Z,13.50
2022-12-18T03:13:21.585Z,12.97
2022-12-18T03:15:00.020Z,14.47
2022-12-18T03:16:35.463Z,13.73
2022-12-18T03:18:18.315Z,14.00
2022-12-18T03:19:52.765Z,13.57
2022-12-18T03:21:31.855Z,13.70
2022-12-18T03:23:09.507Z,13.50
2022-12-18T03:24:42.600Z,15.33
2022-12-18T03:26:18.930Z,13.27
2022-12-18T03:27:56.317Z,12.70
2022-12-18T03:29:35.018Z,13.10
2022-12-18T03:31:11.938Z,12.10
2022-12-18T03:32:49.980Z,13.70
2022-12-18T03:34:29.063Z,12.30
2022-12-18T03:36:02.262Z,13.20
2022-12-18T03:37:35.689Z,12.10
2022-12-18T03:40:51.783Z,11.73
2022-12-18T03:42:29.945Z,13.10
2022-12-18T03:44:12.628Z,11.83
2022-12-18T03:45:54.132Z,12.27
2022-12-18T03:47:32.637Z,12.60
2022-12-18T03:49:13.036Z,12.10
2022-12-18T03:50:50.754Z,12.37
2022-12-18T03:52:33.750Z,12.13
2022-12-18T03:54:08.876Z,12.73
2022-12-18T03:55:42.022Z,12.83
2022-12-18T03:57:20.161Z,12.73
2022-12-18T03:58:55.181Z,13.97
2022-12-18T04:00:28.465Z,12.93
2022-12-18T04:02:03.835Z,12.15
2022-12-18T04:03:40.227Z,12.93
2022-12-18T04:05:13.998Z,12.23
2022-12-18T04:06:49.076Z,11.80
2022-12-18T04:08:22.517Z,13.50
2022-12-18T04:11:29.592Z,11.77
2022-12-18T04:13:02.549Z,12.10
2022-12-18T04:14:36.598Z,10.90
2022-12-18T04:16:10.262Z,11.87
2022-12-18T04:17:50.453Z,12.37
2022-12-18T04:19:24.815Z,13.20
2022-12-18T04:20:58.068Z,12.23
2022-12-18T04:22:31.245Z,11.82
2022-12-18T04:24:03.220Z,12.70
2022-12-18T04:25:36.118Z,12.73
2022-12-18T04:27:09.046Z,12.40
2022-12-18T04:28:41.415Z,11.45
2022-12-18T04:30:14.454Z,11.47
2022-12-18T04:31:47.329Z,11.45
2022-12-18T04:33:20.926Z,11.98
2022-12-18T04:34:54.195Z,11.00
2022-12-18T04:36:28.527Z,12.68
2022-12-18T04:38:00.748Z,11.33
2022-12-18T04:39:33.702Z,12.60
2022-12-18T04:41:07.044Z,10.88
2022-12-18T04:44:12.994Z,11.10
2022-12-18T04:45:48.015Z,10.77
2022-12-18T04:47:25.726Z,11.13
2022-12-18T04:48:58.704Z,11.33
2022-12-18T04:50:33.337Z,11.18
2022-12-18T04:52:06.472Z,11.80
2022-12-18T04:53:38.756Z,12.15
2022-12-18T04:55:11.950Z,12.30
2022-12-18T04:56:44.782Z,11.82
2022-12-18T04:58:17.917Z,12.02
2022-12-18T04:59:50.814Z,11.02
2022-12-18T05:01:24.753Z,11.82
2022-12-18T05:03:02.598Z,11.80
2022-12-18T05:04:35.808Z,12.03
2022-12-18T05:06:09.480Z,12.13
2022-12-18T05:07:42.348Z,10.73
2022-12-18T05:09:15.458Z,10.90
2022-12-18T05:10:48.660Z,11.35
2022-12-18T05:12:20.686Z,11.05
2022-12-18T05:13:53.575Z,11.73
2022-12-18T05:15:27.767Z,11.68
2022-12-18T05:17:01.558Z,12.43
2022-12-18T05:18:34.555Z,11.50
2022-12-18T05:20:07.975Z,11.38
2022-12-18T05:23:15.337Z,11.13
2022-12-18T05:24:47.270Z,10.48
2022-12-18T05:26:20.515Z,10.93
2022-12-18T05:27:52.446Z,11.73
2022-12-18T05:29:25.630Z,11.67
2022-12-18T05:31:01.047Z,11.65
2022-12-18T05:32:34.102Z,10.87
2022-12-18T05:34:07.081Z,12.02
2022-12-18T05:35:39.944Z,10.98
2022-12-18T05:37:14.607Z,11.23
2022-12-18T05:38:47.598Z,11.13
2022-12-18T05:40:20.606Z,12.20
2022-12-18T05:41:53.498Z,11.85
2022-12-18T05:43:27.790Z,10.45
2022-12-18T05:45:00.646Z,11.67
2022-12-18T05:46:33.881Z,11.23
2022-12-18T05:48:07.612Z,11.38
2022-12-18T05:49:40.677Z,10.93
2022-12-18T05:51:16.417Z,11.55
2022-12-18T05:52:50.691Z,10.50
2022-12-18T05:54:23.663Z,11.30
2022-12-18T05:55:56.572Z,11.20
2022-12-18T05:57:29.536Z,10.38
2022-12-18T05:59:02.418Z,11.30
2022-12-18T06:00:40.721Z,11.13
2022-12-18T06:02:13.682Z,11.20
2022-12-18T06:03:47.159Z,10.75
2022-12-18T06:05:20.373Z,9.47
2022-12-18T06:06:54.033Z,11.60
2022-12-18T06:08:27.463Z,11.95
2022-12-18T06:10:00.275Z,10.45
2022-12-18T06:11:32.144Z,11.27
2022-12-18T06:13:05.458Z,11.57
2022-12-18T06:14:38.324Z,10.13
2022-12-18T06:16:11.489Z,11.18
2022-12-18T06:17:43.530Z,11.13
2022-12-18T06:19:18.394Z,11.02
2022-12-18T06:20:57.699Z,11.37
2022-12-18T06:22:32.345Z,11.87
2022-12-18T06:24:07.322Z,11.47
2022-12-18T06:25:40.189Z,11.40
2022-12-18T06:27:13.445Z,10.85
2022-12-18T06:28:46.558Z,10.32
2022-12-18T06:30:19.570Z,11.25
2022-12-18T06:31:52.606Z,10.90
2022-12-18T06:33:28.906Z,10.43
2022-12-18T06:35:01.779Z,11.33
2022-12-18T06:36:34.663Z,10.60
2022-12-18T06:38:06.537Z,10.82
2022-12-18T06:39:40.788Z,11.17
2022-12-18T06:41:15.722Z,10.77
2022-12-18T06:42:48.679Z,10.40
2022-12-18T06:44:21.978Z,11.73
2022-12-18T06:46:01.131Z,11.53
2022-12-18T06:47:34.100Z,11.60
2022-12-18T06:49:07.074Z,11.85
2022-12-18T06:50:42.782Z,10.80
2022-12-18T06:52:18.601Z,10.73
2022-12-18T06:53:51.642Z,11.30
2022-12-18T06:55:25.873Z,10.90
2022-12-18T06:56:58.702Z,10.67
2022-12-18T06:58:31.605Z,11.55
2022-12-18T07:00:06.245Z,10.68
2022-12-18T07:01:39.257Z,10.97
2022-12-18T07:03:12.618Z,11.90
2022-12-18T07:04:45.570Z,10.05
2022-12-18T07:06:20.235Z,10.85
2022-12-18T07:07:53.178Z,11.47
2022-12-18T07:09:26.509Z,12.65
2022-12-18T07:11:01.196Z,10.93
2022-12-18T07:12:34.057Z,11.87
2022-12-18T07:14:06.936Z,11.23
2022-12-18T07:15:39.895Z,11.45
2022-12-18T07:17:13.272Z,10.70
2022-12-18T07:20:19.466Z,9.00
2022-12-18T07:21:52.749Z,11.60
2022-12-18T07:23:24.990Z,11.30
2022-12-18T07:24:57.948Z,11.10
2022-12-18T07:26:32.172Z,9.93
2022-12-18T07:28:05.926Z,11.80
2022-12-18T07:29:38.833Z,12.23
2022-12-18T07:31:14.162Z,12.53
2022-12-18T07:32:47.146Z,11.60
2022-12-18T07:34:20.047Z,10.45
2022-12-18T07:35:52.948Z,11.70
2022-12-18T07:37:25.899Z,10.43
2022-12-18T07:38:58.864Z,10.50
2022-12-18T07:40:31.707Z,11.85
2022-12-18T07:42:23.555Z,12.55
2022-12-18T07:43:57.801Z,13.50
2022-12-18T07:45:30.650Z,12.65
2022-12-18T07:47:06.639Z,12.85
2022-12-18T07:48:45.524Z,11.13
2022-12-18T07:50:22.498Z,11.83
2022-12-18T07:51:57.042Z,11.50
2022-12-18T07:53:30.292Z,11.17
2022-12-18T07:55:03.218Z,10.77
2022-12-18T07:56:36.076Z,10.60
2022-12-18T07:58:10.702Z,10.27
2022-12-18T07:59:43.622Z,10.80
2022-12-18T08:01:16.615Z,10.65
2022-12-18T08:02:50.237Z,10.10
2022-12-18T08:04:23.168Z,10.23
2022-12-18T08:06:00.974Z,10.80
2022-12-18T08:07:33.934Z,10.37
2022-12-18T08:09:06.862Z,9.98
2022-12-18T08:10:40.157Z,11.13
2022-12-18T08:12:13.062Z,11.35
2022-12-18T08:13:47.297Z,10.63
2022-12-18T08:15:20.358Z,10.60
2022-12-18T08:16:53.327Z,10.05
2022-12-18T08:18:26.558Z,10.30
2022-12-18T08:19:59.552Z,12.30
2022-12-18T08:21:33.557Z,10.27
2022-12-18T08:23:06.602Z,11.90
2022-12-18T08:24:39.970Z,11.15
2022-12-18T08:26:14.003Z,10.57
2022-12-18T08:27:47.340Z,12.07
2022-12-18T08:29:21.911Z,11.38
2022-12-18T08:30:55.204Z,11.17
2022-12-18T08:32:29.386Z,10.25
2022-12-18T08:34:02.657Z,10.73
2022-12-18T08:35:44.101Z,11.77
2022-12-18T08:37:18.673Z,11.23
2022-12-18T08:38:52.257Z,11.35
2022-12-18T08:40:25.571Z,10.27
2022-12-18T08:42:16.027Z,11.15
2022-12-18T08:44:06.618Z,10.53
2022-12-18T08:45:41.070Z,12.07
2022-12-18T08:47:14.019Z,11.60
2022-12-18T08:48:47.284Z,10.48
2022-12-18T08:50:20.995Z,11.30
2022-12-18T08:51:57.992Z,10.23
2022-12-18T08:53:35.424Z,8.77
2022-12-18T08:55:10.402Z,8.73
2022-12-18T08:56:43.484Z,8.23
2022-12-18T08:58:16.845Z,9.18
2022-12-18T08:59:50.139Z,8.15
2022-12-18T09:01:25.376Z,8.00
2022-12-18T09:02:58.478Z,8.73
2022-12-18T09:04:31.464Z,8.57
2022-12-18T09:06:04.529Z,8.73
2022-12-18T09:07:37.485Z,8.73
2022-12-18T09:09:12.155Z,9.00
2022-12-18T09:10:46.274Z,8.97
2022-12-18T09:12:19.325Z,9.40
2022-12-18T09:13:52.673Z,10.00
2022-12-18T09:16:59.800Z,9.00
2022-12-18T09:18:32.708Z,9.77
2022-12-18T09:20:06.472Z,9.63
2022-12-18T09:21:43.383Z,8.30
2022-12-18T09:23:19.238Z,8.73
2022-12-18T09:24:52.210Z,9.13
2022-12-18T09:26:27.074Z,8.05
2022-12-18T09:28:00.395Z,9.37
2022-12-18T09:29:34.996Z,7.57
2022-12-18T09:32:43.210Z,7.40
2022-12-18T09:34:16.114Z,7.50
2022-12-18T09:35:49.376Z,7.68
2022-12-18T09:37:22.373Z,7.80
2022-12-18T09:38:55.693Z,7.40
2022-12-18T09:40:41.875Z,7.32
2022-12-18T09:42:22.095Z,7.53
2022-12-18T09:44:00.203Z,6.83
2022-12-18T09:45:41.087Z,8.47
2022-12-18T09:47:18.164Z,8.07
2022-12-18T09:48:56.562Z,8.50
2022-12-18T09:50:34.862Z,8.43
2022-12-18T09:52:14.689Z,6.60
2022-12-18T09:54:03.498Z,8.07
2022-12-18T09:55:39.834Z,7.63
2022-12-18T09:57:16.359Z,7.23
2022-12-18T09:58:55.197Z,8.20
2022-12-18T10:00:28.247Z,8.10
2022-12-18T10:02:01.332Z,7.88
2022-12-18T10:03:34.730Z,8.03
2022-12-18T10:05:13.245Z,8.43
2022-12-18T10:06:54.730Z,7.67
2022-12-18T10:08:35.898Z,8.63
2022-12-18T10:10:14.747Z,7.87
2022-12-18T10:11:56.424Z,8.47
2022-12-18T10:13:39.634Z,8.47
2022-12-18T10:15:22.245Z,8.13
2022-12-18T10:17:04.758Z,9.20
2022-12-18T10:18:59.830Z,8.80
2022-12-18T10:20:40.653Z,8.20
2022-12-18T10:22:24.837Z,8.03
2022-12-18T10:24:04.927Z,7.57
2022-12-18T10:25:49.085Z,8.70
2022-12-18T10:27:26.117Z,8.03
2022-12-18T10:29:05.479Z,9.57
2022-12-18T10:30:43.748Z,8.40
2022-12-18T10:32:19.158Z,8.43
2022-12-18T10:33:53.072Z,8.50
2022-12-18T10:35:28.795Z,7.73
2022-12-18T10:37:08.367Z,7.43
2022-12-18T10:38:41.937Z,6.93
2022-12-18T10:40:21.774Z,8.43
2022-12-18T10:42:13.958Z,9.47
2022-12-18T10:43:47.310Z,8.90
2022-12-18T10:45:20.283Z,8.32
2022-12-18T10:46:57.777Z,8.77
2022-12-18T10:48:33.138Z,7.57
2022-12-18T10:50:06.702Z,8.23
2022-12-18T10:51:40.020Z,8.00
2022-12-18T10:53:22.402Z,8.30
2022-12-18T10:54:59.247Z,8.97
2022-12-18T10:56:35.418Z,8.27
2022-12-18T10:58:26.982Z,9.17
2022-12-18T11:00:01.998Z,8.57
2022-12-18T11:01:52.395Z,8.47
2022-12-18T11:03:36.533Z,7.83
2022-12-18T11:05:28.720Z,8.33
2022-12-18T11:07:03.887Z,7.87
2022-12-18T11:08:39.059Z,8.20
2022-12-18T11:10:18.500Z,8.10
2022-12-18T11:11:53.274Z,9.73
2022-12-18T11:13:28.793Z,8.23
2022-12-18T11:15:01.876Z,8.43
2022-12-18T11:16:39.454Z,7.82
2022-12-18T11:18:21.048Z,8.47
2022-12-18T11:19:59.031Z,8.70
2022-12-18T11:21:32.445Z,8.83
2022-12-18T11:24:41.969Z,7.75
2022-12-18T11:26:15.388Z,8.00
2022-12-18T11:29:30.618Z,7.67
2022-12-18T11:31:29.235Z,8.20
2022-12-18T11:33:07.334Z,7.53
2022-12-18T11:34:41.434Z,7.93
2022-12-18T11:36:16.148Z,8.43
2022-12-18T11:37:55.272Z,8.53
2022-12-18T11:39:36.073Z,8.83
2022-12-18T11:41:21.711Z,8.87
2022-12-18T11:43:00.268Z,8.50
2022-12-18T11:44:40.403Z,7.87
2022-12-18T11:46:19.865Z,8.23
2022-12-18T11:47:59.521Z,8.50
2022-12-18T11:49:36.251Z,8.17
2022-12-18T11:51:16.720Z,8.67
2022-12-18T11:52:55.958Z,8.40
2022-12-18T11:54:30.964Z,8.57
2022-12-18T11:57:57.248Z,7.53
2022-12-18T11:59:42.157Z,9.88
2022-12-18T12:01:35.591Z,8.07
2022-12-18T12:03:52.867Z,9.53
2022-12-18T12:05:43.087Z,7.80
2022-12-18T12:07:33.437Z,7.63
2022-12-18T12:09:15.505Z,7.97
2022-12-18T12:10:58.828Z,8.87
2022-12-18T12:12:48.957Z,8.90
2022-12-18T12:14:41.658Z,8.50
2022-12-18T12:16:21.979Z,8.27
2022-12-18T12:18:00.130Z,8.07
2022-12-18T12:19:42.980Z,7.97
2022-12-18T12:21:25.789Z,9.27
2022-12-18T12:23:07.573Z,10.70
2022-12-18T12:24:52.857Z,8.93
2022-12-18T12:26:35.441Z,8.83
2022-12-18T12:28:18.765Z,8.60
2022-12-18T12:30:05.602Z,8.45
2022-12-18T12:31:53.391Z,8.93
2022-12-18T12:33:41.792Z,9.03
2022-12-18T12:35:30.960Z,7.83
2022-12-18T12:37:20.265Z,8.40
2022-12-18T12:38:57.282Z,7.27
2022-12-18T12:40:53.897Z,9.10
2022-12-18T12:42:51.044Z,8.27
2022-12-18T12:44:28.140Z,7.70
2022-12-18T12:46:09.090Z,7.60
2022-12-18T12:47:45.971Z,8.77
2022-12-18T12:49:23.099Z,8.57
2022-12-18T12:50:58.279Z,8.17
2022-12-18T12:52:36.842Z,8.53
2022-12-18T12:54:22.890Z,9.23
2022-12-18T12:55:56.893Z,8.23
2022-12-18T12:57:36.504Z,8.87
2022-12-18T12:59:16.115Z,7.80
2022-12-18T13:00:57.605Z,8.93
2022-12-18T13:02:37.961Z,8.13
2022-12-18T13:04:23.368Z,8.13
2022-12-18T13:06:01.322Z,8.80
2022-12-18T13:07:39.990Z,8.10
2022-12-18T13:09:13.346Z,9.10
2022-12-18T13:10:46.909Z,9.17
2022-12-18T13:12:38.692Z,8.33
2022-12-18T13:14:22.646Z,9.07
2022-12-18T13:17:40.893Z,8.30
2022-12-18T13:19:27.935Z,8.10
2022-12-18T13:21:10.195Z,8.50
2022-12-18T13:22:46.926Z,8.23
2022-12-18T13:24:27.189Z,8.83
2022-12-18T13:26:01.688Z,9.23
2022-12-18T13:27:55.507Z,9.17
2022-12-18T13:32:13.716Z,10.13
2022-12-18T13:35:55.028Z,9.50
2022-12-18T13:37:54.041Z,8.27
2022-12-18T13:39:36.076Z,9.17
2022-12-18T13:41:26.114Z,8.40
2022-12-18T13:43:14.727Z,8.60
2022-12-18T13:44:48.338Z,8.13
2022-12-18T13:46:29.104Z,9.10
2022-12-18T13:48:02.158Z,8.93
2022-12-18T13:49:41.803Z,8.70
2022-12-18T13:51:19.761Z,8.83
2022-12-18T13:52:54.489Z,9.10
2022-12-18T13:54:34.566Z,8.03
2022-12-18T13:56:08.155Z,8.53
2022-12-18T13:57:41.956Z,10.00
2022-12-18T14:00:49.801Z,7.90
2022-12-18T14:02:25.031Z,8.88
2022-12-18T14:04:11.514Z,8.63
2022-12-18T14:05:48.043Z,8.33
2022-12-18T14:07:24.912Z,8.97
2022-12-18T14:09:00.683Z,9.20
2022-12-18T14:10:48.676Z,9.40
2022-12-18T14:12:43.708Z,8.03
2022-12-18T14:14:19.252Z,9.37
2022-12-18T14:15:53.711Z,8.60
2022-12-18T14:17:27.052Z,8.40
2022-12-18T14:19:11.781Z,8.67
2022-12-18T14:20:53.263Z,8.60
2022-12-18T14:22:30.488Z,9.17
2022-12-18T14:24:14.125Z,9.37
2022-12-18T14:27:24.970Z,8.15
2022-12-18T14:28:58.939Z,8.23
2022-12-18T14:30:33.963Z,8.17
2022-12-18T14:32:18.267Z,8.40
2022-12-18T14:33:51.930Z,8.23
2022-12-18T14:35:23.980Z,8.65
2022-12-18T14:36:58.317Z,8.10
2022-12-18T14:38:35.205Z,8.30
2022-12-18T14:40:14.789Z,8.37
2022-12-18T14:41:50.296Z,8.70
2022-12-18T14:43:23.409Z,8.27
2022-12-18T14:45:41.001Z,8.88
2022-12-18T14:47:17.313Z,8.00
2022-12-18T14:48:50.640Z,9.17
2022-12-18T14:50:23.587Z,9.02
2022-12-18T14:52:02.969Z,8.45
2022-12-18T14:53:41.676Z,8.57
2022-12-18T14:55:18.253Z,8.03
2022-12-18T14:56:56.973Z,8.70
2022-12-18T14:58:30.214Z,8.63
2022-12-18T15:00:07.129Z,8.93
2022-12-18T15:01:48.149Z,8.23
2022-12-18T15:03:23.001Z,7.87
2022-12-18T15:05:07.238Z,7.77
2022-12-18T15:06:42.879Z,8.37
2022-12-18T15:08:44.353Z,9.15
2022-12-18T15:10:19.673Z,8.27
2022-12-18T15:11:58.445Z,8.30
2022-12-18T15:13:31.737Z,8.10
2022-12-18T15:16:40.224Z,7.97
2022-12-18T15:18:18.806Z,8.83
2022-12-18T15:19:54.249Z,9.50
2022-12-18T15:21:31.501Z,8.53
2022-12-18T15:23:04.443Z,8.43
2022-12-18T15:24:38.953Z,9.05
2022-12-18T15:26:13.955Z,8.30
2022-12-18T15:27:49.283Z,8.67
2022-12-18T15:29:23.828Z,8.47
2022-12-18T15:31:24.842Z,8.77
2022-12-18T15:33:19.148Z,8.10
2022-12-18T15:34:52.199Z,8.20
2022-12-18T15:36:27.152Z,8.10
2022-12-18T15:38:00.314Z,8.40
2022-12-18T15:39:33.209Z,10.27
2022-12-18T15:41:13.123Z,8.77
2022-12-18T15:43:05.834Z,8.80
2022-12-18T15:44:39.347Z,9.03
2022-12-18T15:47:46.748Z,8.40
2022-12-18T15:49:19.627Z,8.35
2022-12-18T15:50:54.276Z,8.45
2022-12-18T15:52:27.417Z,9.43
2022-12-18T15:54:02.763Z,8.18
2022-12-18T15:55:56.538Z,9.10
2022-12-18T15:57:36.754Z,8.33
2022-12-18T15:59:14.397Z,9.23
2022-12-18T16:00:47.282Z,8.57
2022-12-18T16:02:21.841Z,9.88
2022-12-18T16:03:55.480Z,9.67
2022-12-18T16:05:31.027Z,9.80
2022-12-18T16:07:14.812Z,9.40
2022-12-18T16:08:48.358Z,8.23
2022-12-18T16:10:20.353Z,8.93
2022-12-18T16:11:53.266Z,9.13
2022-12-18T16:13:27.629Z,9.13
2022-12-18T16:15:00.483Z,8.20
2022-12-18T16:16:33.380Z,8.82
2022-12-18T16:18:06.567Z,9.18
2022-12-18T16:19:39.533Z,9.45
2022-12-18T16:21:12.668Z,9.35
2022-12-18T16:22:46.893Z,8.85
2022-12-18T16:24:22.794Z,8.63
2022-12-18T16:25:55.935Z,9.27
2022-12-18T16:27:28.813Z,10.95
2022-12-18T16:29:03.136Z,10.63
2022-12-18T16:30:38.036Z,10.80
2022-12-18T16:32:15.642Z,9.10
2022-12-18T16:33:48.721Z,8.97
2022-12-18T16:35:21.776Z,9.82
2022-12-18T16:36:58.923Z,9.63
2022-12-18T16:38:34.501Z,9.00
2022-12-18T16:40:09.888Z,10.38
2022-12-18T16:41:42.786Z,9.00
2022-12-18T16:43:15.648Z,9.75
2022-12-18T16:44:51.439Z,9.27
2022-12-18T16:46:24.405Z,9.57
2022-12-18T16:47:57.378Z,9.77
2022-12-18T16:49:30.567Z,9.80
2022-12-18T16:51:05.316Z,9.57
2022-12-18T16:52:38.369Z,9.53
2022-12-18T16:54:15.931Z,10.32
2022-12-18T16:55:56.322Z,9.73
2022-12-18T16:57:29.178Z,9.37
2022-12-18T16:59:03.823Z,9.63
2022-12-18T17:00:41.101Z,9.57
2022-12-18T17:02:17.192Z,9.83
2022-12-18T17:03:55.363Z,10.07
2022-12-18T17:05:28.333Z,10.77
2022-12-18T17:07:01.274Z,11.07
2022-12-18T17:08:34.469Z,10.48
2022-12-18T17:10:08.138Z,9.98
2022-12-18T17:11:41.668Z,10.47
2022-12-18T17:13:14.572Z,10.18
2022-12-18T17:14:47.486Z,10.55
2022-12-18T17:16:22.128Z,9.48
2022-12-18T17:17:55.126Z,9.83
2022-12-18T17:19:30.629Z,10.83
2022-12-18T17:21:05.952Z,10.10
2022-12-18T17:22:38.846Z,10.50
2022-12-18T17:24:11.835Z,11.02
2022-12-18T17:25:44.740Z,10.88
2022-12-18T17:27:17.725Z,10.45
2022-12-18T17:28:50.794Z,11.00
2022-12-18T17:30:23.684Z,11.57
2022-12-18T17:32:00.313Z,10.82
2022-12-18T17:33:33.417Z,10.90
2022-12-18T17:35:07.617Z,9.55
2022-12-18T17:36:41.391Z,10.20
2022-12-18T17:38:14.583Z,11.83
2022-12-18T17:39:47.515Z,10.25
2022-12-18T17:41:20.942Z,10.35
2022-12-18T17:44:26.770Z,9.53
2022-12-18T17:46:03.504Z,9.68
2022-12-18T17:47:38.542Z,10.27
2022-12-18T17:49:11.880Z,11.00
2022-12-18T17:50:45.867Z,11.02
2022-12-18T17:52:18.861Z,10.83
2022-12-18T17:53:52.210Z,11.05
2022-12-18T17:56:57.927Z,9.33
2022-12-18T17:58:30.816Z,10.85
2022-12-18T18:00:04.864Z,10.05
2022-12-18T18:01:44.045Z,10.60
2022-12-18T18:03:19.018Z,10.43
2022-12-18T18:04:51.947Z,11.23
2022-12-18T18:06:25.076Z,11.30
2022-12-18T18:08:02.348Z,10.50
2022-12-18T18:09:35.270Z,10.77
2022-12-18T18:11:27.408Z,10.25
2022-12-18T18:13:17.923Z,10.33
2022-12-18T18:14:50.814Z,10.03
2022-12-18T18:16:23.820Z,10.65
2022-12-18T18:17:56.655Z,9.65
2022-12-18T18:19:30.884Z,10.30
2022-12-18T18:21:06.261Z,11.10
2022-12-18T18:22:39.607Z,11.20
2022-12-18T18:24:14.729Z,10.70
2022-12-18T18:25:47.643Z,11.23
2022-12-18T18:27:20.515Z,10.18
2022-12-18T18:28:55.506Z,11.43
2022-12-18T18:30:30.059Z,11.70
2022-12-18T18:32:03.131Z,10.93
2022-12-18T18:33:35.397Z,12.43
2022-12-18T18:35:24.642Z,10.82
2022-12-18T18:37:04.026Z,9.57
2022-12-18T18:40:10.409Z,10.87
2022-12-18T18:41:48.355Z,10.30
2022-12-18T18:43:21.436Z,11.13
2022-12-18T18:44:54.245Z,9.38
2022-12-18T18:46:27.535Z,10.30
2022-12-18T18:48:00.506Z,10.98
2022-12-18T18:49:33.303Z,10.55
2022-12-18T18:51:09.482Z,10.45
2022-12-18T18:52:44.171Z,10.57
2022-12-18T18:54:17.878Z,10.13
2022-12-18T18:56:10.213Z,11.80
2022-12-18T18:57:43.783Z,10.97
2022-12-18T18:59:16.689Z,9.85
2022-12-18T19:00:57.175Z,11.68
2022-12-18T19:02:30.249Z,10.23
2022-12-18T19:04:03.271Z,10.15
2022-12-18T19:05:36.158Z,10.73
2022-12-18T19:07:10.457Z,10.80
2022-12-18T19:08:43.808Z,10.33
2022-12-18T19:10:17.770Z,10.73
2022-12-18T19:12:08.815Z,11.50
2022-12-18T19:13:42.024Z,10.97
2022-12-18T19:16:48.074Z,11.03
2022-12-18T19:18:21.017Z,10.55
2022-12-18T19:19:53.895Z,9.82
2022-12-18T19:21:27.140Z,10.68
2022-12-18T19:23:01.403Z,10.00
2022-12-18T19:24:34.570Z,10.90
2022-12-18T19:26:27.910Z,11.43
2022-12-18T19:28:01.432Z,9.85
2022-12-18T19:29:34.322Z,11.13
2022-12-18T19:31:12.625Z,11.63
2022-12-18T19:32:45.484Z,11.13
2022-12-18T19:34:18.483Z,11.32
2022-12-18T19:35:51.957Z,11.10
2022-12-18T19:37:24.926Z,10.40
2022-12-18T19:39:02.273Z,10.83
2022-12-18T19:40:35.529Z,11.90
2022-12-18T19:42:08.443Z,10.60
2022-12-18T19:43:41.488Z,11.50
2022-12-18T19:45:14.363Z,10.85
2022-12-18T19:46:50.500Z,11.52
2022-12-18T19:48:23.453Z,10.03
2022-12-18T19:49:56.388Z,10.82
2022-12-18T19:51:30.790Z,11.30
2022-12-18T19:53:03.855Z,10.33
2022-12-18T19:54:40.360Z,11.30
2022-12-18T19:56:15.303Z,10.67
2022-12-18T19:57:48.234Z,10.20
2022-12-18T19:59:21.085Z,11.18
2022-12-18T20:00:53.989Z,10.60
2022-12-18T20:02:27.031Z,10.93
2022-12-18T20:04:00.539Z,11.68
2022-12-18T20:05:34.656Z,11.50
2022-12-18T20:07:07.668Z,12.00
2022-12-18T20:08:41.286Z,11.05
2022-12-18T20:10:15.626Z,11.30
2022-12-18T20:11:50.342Z,10.97
2022-12-18T20:13:23.299Z,10.63
2022-12-18T20:14:56.153Z,10.60
2022-12-18T20:16:29.373Z,10.30
2022-12-18T20:18:03.636Z,10.50
2022-12-18T20:19:36.720Z,9.80
2022-12-18T20:21:13.856Z,11.18
2022-12-18T20:22:47.193Z,10.57
2022-12-18T20:24:20.095Z,11.73
2022-12-18T20:25:55.629Z,10.45
2022-12-18T20:27:28.515Z,10.27
2022-12-18T20:29:01.488Z,10.50
2022-12-18T20:30:34.430Z,11.00
2022-12-18T20:32:07.329Z,10.10
2022-12-18T20:33:41.153Z,10.02
2022-12-18T20:35:14.378Z,10.27
2022-12-18T20:36:47.366Z,10.40
2022-12-18T20:39:54.542Z,10.02
2022-12-18T20:41:31.045Z,9.80
2022-12-18T20:43:16.964Z,9.25
2022-12-18T20:44:50.257Z,9.23
2022-12-18T20:46:23.403Z,9.82
2022-12-18T20:47:56.939Z,9.70
2022-12-18T20:49:30.276Z,10.70
2022-12-18T20:51:05.602Z,9.68
2022-12-18T20:52:38.672Z,10.27
2022-12-18T20:54:12.156Z,10.20
2022-12-18T20:55:45.081Z,10.17
2022-12-18T20:57:19.329Z,9.68
2022-12-18T20:58:55.072Z,9.57
2022-12-18T21:00:28.507Z,10.03
2022-12-18T21:02:01.548Z,10.77
2022-12-18T21:03:34.778Z,10.30
2022-12-18T21:05:08.570Z,9.60
2022-12-18T21:06:42.851Z,11.10
2022-12-18T21:08:17.871Z,10.63
2022-12-18T21:09:50.796Z,9.85
2022-12-18T21:11:47.301Z,9.95
2022-12-18T21:13:21.694Z,10.43
2022-12-18T21:14:54.900Z,9.50
2022-12-18T21:16:28.099Z,9.55
2022-12-18T21:18:01.624Z,9.77
2022-12-18T21:19:34.824Z,10.32
2022-12-18T21:21:07.821Z,10.20
2022-12-18T21:22:40.715Z,9.88
2022-12-18T21:24:13.692Z,10.13
2022-12-18T21:25:46.921Z,9.60
2022-12-18T21:27:22.865Z,9.57
2022-12-18T21:28:58.630Z,10.38
2022-12-18T21:30:31.897Z,9.93
2022-12-18T21:32:06.177Z,9.88
2022-12-18T21:33:38.161Z,10.60
2022-12-18T21:35:11.165Z,10.90
2022-12-18T21:36:44.077Z,9.07
2022-12-18T21:38:16.968Z,10.68
2022-12-18T21:39:50.226Z,10.02
2022-12-18T21:41:42.268Z,9.90
2022-12-18T21:43:33.137Z,9.60
2022-12-18T21:45:08.406Z,8.90
2022-12-18T21:46:43.059Z,9.23
2022-12-18T21:48:16.484Z,11.10